Eads, Colorado
Current Conditions -  °F | °C
As of 8:53 AM on Saturday 22 Nov 2014 (Local Time) from KLAA Reporting Station
Clear Clear  
Wind Chill: 34°   Ceiling: Unl
Heat Index: 39°   Visibility: 10mi
Dew Point: 31°   Wind: 7mph
Humidity: 73%   Direction: 300°WNW
Pressure: 29.84"   Gusts: NA
Location:  38.48°N, 102.78°W
Report Text: KLAA 221553Z AUTO 30006KT 10SM CLR 04/M01 A2984 RMK AO2 SLP107 T00391006
Loading
Personal Weather Stations






























Interactive Weather Map New forecast layout! Learn more

10-Day Weather Forecast

Advertisements
Track Severe Weather on mobile